Time;durP1;ratioP1;P1;durP2;ratioP2;P2;SDS_P1;SDS_P2;PMS_P1;PMS_P2;Temp;Humidity;BMP_temperature;BMP_pressure;BME280_temperature;BME280_humidity;BME280_pressure;Samples;Min_cycle;Max_cycle;Signal;HPM_P1;HPM_P2
2023/09/14 00:01:14;;;;;;;0.90;0.50;;;20.60;99.90;;;21.07;69.94;101810.25;6062810;22;97297;-74
2023/09/14 00:03:40;;;;;;;0.83;0.70;;;20.50;99.90;;;21.13;71.47;101808.16;6013322;23;96891;-74
2023/09/14 00:06:07;;;;;;;0.80;0.40;;;20.60;99.90;;;21.18;70.71;101809.59;6067168;22;97458;-74
2023/09/14 00:08:33;;;;;;;0.60;0.43;;;20.70;99.90;;;21.19;71.13;101818.50;6076165;23;97365;-75
2023/09/14 00:11:03;;;;;;;2.10;0.63;;;20.70;99.90;;;21.17;70.13;101815.06;6071711;22;96755;-74
2023/09/14 00:13:29;;;;;;;0.83;0.60;;;20.60;99.90;;;21.19;71.41;101813.13;6042328;23;97233;-74
2023/09/14 00:15:55;;;;;;;0.73;0.50;;;20.70;99.90;;;21.23;71.32;101817.34;6044329;23;99315;-73
2023/09/14 00:18:21;;;;;;;2.33;0.43;;;20.80;99.90;;;21.24;70.13;101811.88;6071448;22;98479;-74
2023/09/14 00:20:48;;;;;;;0.70;0.60;;;20.80;99.90;;;21.23;69.48;101810.16;6037899;22;97943;-74
2023/09/14 00:23:15;;;;;;;0.67;0.60;;;20.70;99.90;;;21.24;70.25;101811.03;6037833;23;97661;-75
2023/09/14 00:25:40;;;;;;;1.07;0.70;;;20.70;99.90;;;21.19;66.82;101808.63;6055906;23;97370;-74
2023/09/14 00:28:06;;;;;;;0.87;0.60;;;20.60;99.90;;;21.22;71.27;101807.56;6058484;23;99454;-74
2023/09/14 00:30:33;;;;;;;1.47;0.80;;;20.70;99.90;;;21.21;68.49;101805.84;6087329;23;106899;-75
2023/09/14 00:32:59;;;;;;;0.77;0.60;;;20.70;99.90;;;21.13;70.82;101802.78;6056344;23;97187;-73
2023/09/14 00:35:24;;;;;;;0.90;0.47;;;20.50;99.90;;;21.17;70.98;101805.19;6058445;23;109389;-77
2023/09/14 00:37:50;;;;;;;0.70;0.60;;;20.60;99.90;;;21.19;68.92;101805.09;6087753;22;101098;-74
2023/09/14 00:40:17;;;;;;;1.83;0.90;;;20.70;99.90;;;21.04;63.58;101799.72;6083974;23;98815;-73
2023/09/14 00:42:53;;;;;;;2.60;0.70;;;20.40;99.90;;;21.08;69.07;101806.59;6057384;23;98226;-74
2023/09/14 00:45:22;;;;;;;3.70;0.80;;;20.50;99.90;;;20.96;64.92;101807.34;6054281;23;98413;-74
2023/09/14 00:47:58;;;;;;;0.70;0.60;;;20.30;99.90;;;20.94;71.83;101803.91;6054499;23;101593;-74
2023/09/14 00:50:26;;;;;;;0.43;0.20;;;20.20;99.90;;;21.01;72.11;101801.72;6081254;22;101795;-75
2023/09/14 00:53:13;;;;;;;1.13;0.60;;;20.50;99.90;;;21.06;71.94;101797.78;6088508;22;97059;-74
2023/09/14 00:55:39;;;;;;;4.13;0.90;;;20.50;99.90;;;21.00;67.33;101798.19;6058377;22;98590;-74
2023/09/14 00:58:05;;;;;;;0.93;0.60;;;20.50;99.90;;;21.05;71.47;101796.06;6057345;23;100000;-74
2023/09/14 01:00:31;;;;;;;0.70;0.53;;;20.50;99.90;;;20.96;68.20;101796.63;6078311;22;97350;-74
2023/09/14 01:02:58;;;;;;;0.60;0.60;;;20.40;99.90;;;21.00;69.58;101798.19;6057749;23;97022;-75
2023/09/14 01:05:30;;;;;;;0.50;0.50;;;20.50;99.90;;;20.91;68.68;101798.72;6089081;22;97191;-74
2023/09/14 01:07:57;;;;;;;0.80;0.60;;;20.20;99.90;;;20.92;71.55;101800.47;6055704;23;101018;-74
2023/09/14 01:10:23;;;;;;;2.07;0.60;;;20.20;99.90;;;20.91;71.05;101803.22;6060325;23;97934;-74
2023/09/14 01:12:49;;;;;;;0.80;0.60;;;20.20;99.90;;;20.96;71.57;101804.66;6057031;23;99190;-74
2023/09/14 01:15:33;;;;;;;0.97;0.70;;;20.40;99.90;;;21.00;72.13;101806.22;6058274;23;97323;-75
2023/09/14 01:18:26;;;;;;;0.50;0.43;;;20.50;99.90;;;21.03;71.54;101803.34;6079350;22;102080;-75
2023/09/14 01:21:30;;;;;;;1.70;0.90;;;20.50;99.90;;;21.00;71.62;101808.91;6060637;22;104367;-74
2023/09/14 01:24:11;;;;;;;0.80;0.50;;;20.50;99.90;;;20.97;71.11;101809.06;6078724;23;97173;-75
2023/09/14 01:26:37;;;;;;;0.90;0.70;;;20.40;99.90;;;20.99;71.10;101809.00;6088212;22;96847;-74
2023/09/14 01:29:04;;;;;;;4.17;1.10;;;20.40;99.90;;;20.94;67.38;101811.94;6078595;22;97657;-75
2023/09/14 01:35:11;;;;;;;0.97;0.50;;;20.20;99.90;;;20.90;70.93;101822.97;6084291;23;96996;-74
2023/09/14 01:37:37;;;;;;;1.27;0.50;;;20.20;99.90;;;20.89;72.10;101816.75;6059780;23;97422;-74
2023/09/14 01:40:08;;;;;;;1.17;0.60;;;20.20;99.90;;;20.91;71.99;101814.81;6061858;23;98831;-74
2023/09/14 01:42:36;;;;;;;0.60;0.60;;;20.30;99.90;;;20.97;72.29;101811.75;6076316;22;97562;-74
2023/09/14 01:45:03;;;;;;;0.63;0.50;;;20.50;99.90;;;21.01;71.84;101810.63;6055492;23;101612;-74
2023/09/14 01:47:29;;;;;;;0.80;0.40;;;20.50;99.90;;;21.09;72.07;101818.19;6086339;22;96628;-74
2023/09/14 01:49:54;;;;;;;0.40;0.40;;;20.70;99.90;;;21.19;71.40;101813.13;6062361;23;97593;-74
2023/09/14 01:52:21;;;;;;;1.27;0.37;;;20.80;99.90;;;21.26;71.17;101814.50;6037902;23;101747;-75
2023/09/14 01:54:47;;;;;;;0.70;0.50;;;20.90;99.90;;;21.32;70.82;101814.13;6084432;22;97184;-74
2023/09/14 01:57:13;;;;;;;0.90;0.53;;;21.00;99.90;;;21.42;70.56;101815.28;6059351;23;97268;-74
2023/09/14 01:59:39;;;;;;;0.80;0.70;;;21.20;99.90;;;21.46;70.08;101816.81;6080700;22;99543;-75
2023/09/14 02:02:04;;;;;;;0.50;0.50;;;21.30;99.90;;;21.52;69.89;101816.41;6058521;23;100594;-74
2023/09/14 02:04:30;;;;;;;1.43;0.67;;;21.30;99.90;;;21.56;69.59;101811.75;6086273;22;96761;-74
2023/09/14 02:06:56;;;;;;;0.53;0.40;;;21.40;99.90;;;21.57;69.60;101808.09;6057577;22;98531;-74
2023/09/14 02:09:23;;;;;;;0.57;0.47;;;21.40;99.90;;;21.62;69.47;101814.03;6080178;22;96886;-74
2023/09/14 02:11:51;;;;;;;1.93;0.80;;;21.40;99.90;;;21.62;69.37;101809.50;6082728;22;101126;-74
2023/09/14 02:14:17;;;;;;;0.60;0.40;;;21.40;99.90;;;21.64;69.09;101812.94;6030083;22;97340;-74
2023/09/14 02:16:43;;;;;;;0.80;0.60;;;21.40;99.90;;;21.64;69.25;101809.41;6076194;22;97172;-75
2023/09/14 02:19:09;;;;;;;0.90;0.60;;;21.40;99.90;;;21.63;68.76;101811.22;6057731;23;98894;-74
2023/09/14 02:21:35;;;;;;;0.93;0.50;;;21.40;99.90;;;21.63;67.93;101813.06;6085683;22;99169;-75
2023/09/14 02:24:00;;;;;;;1.27;0.47;;;21.30;99.90;;;21.56;65.30;101809.91;6083061;23;97217;-75
2023/09/14 02:26:26;;;;;;;1.40;0.83;;;21.20;99.90;;;21.48;62.71;101811.34;6059552;23;97529;-75
2023/09/14 02:28:52;;;;;;;2.03;0.70;;;21.00;99.90;;;21.36;67.75;101821.88;6088381;23;97472;-75
2023/09/14 02:31:19;;;;;;;1.37;0.60;;;20.80;99.90;;;21.24;66.18;101821.75;6058868;23;97412;-75
2023/09/14 02:33:45;;;;;;;1.00;0.83;;;20.60;99.90;;;21.14;70.34;101823.31;6085609;23;97595;-74
2023/09/14 02:36:10;;;;;;;0.70;0.50;;;20.40;99.90;;;21.12;70.69;101822.50;6083168;22;97439;-74
2023/09/14 02:38:36;;;;;;;0.70;0.50;;;20.50;99.90;;;21.07;68.66;101818.28;6083927;23;99290;-75
2023/09/14 02:41:02;;;;;;;0.53;0.40;;;20.40;99.90;;;21.04;70.14;101823.84;6082818;22;102218;-74
2023/09/14 02:43:28;;;;;;;0.60;0.53;;;20.40;99.90;;;21.10;71.33;101822.59;6083466;23;97194;-75
2023/09/14 02:45:54;;;;;;;1.33;0.80;;;20.50;99.90;;;21.15;71.03;101827.72;6087441;22;97189;-74
2023/09/14 02:48:19;;;;;;;0.63;0.50;;;20.70;99.90;;;21.22;70.86;101824.53;6080599;23;101678;-75
2023/09/14 02:50:45;;;;;;;0.80;0.60;;;20.90;99.90;;;21.33;70.40;101826.59;6084242;22;97046;-75
2023/09/14 02:53:11;;;;;;;0.90;0.60;;;21.10;99.90;;;21.45;69.96;101831.19;6079521;22;99412;-75
2023/09/14 02:55:37;;;;;;;0.70;0.20;;;21.20;99.90;;;21.54;69.54;101827.06;6086778;23;97450;-75
2023/09/14 02:58:08;;;;;;;0.93;0.50;;;21.40;99.90;;;21.65;69.03;101819.19;6076370;23;106986;-75
2023/09/14 03:00:37;;;;;;;1.07;0.70;;;21.50;99.90;;;21.72;68.51;101822.34;6058916;23;98995;-74
2023/09/14 03:03:03;;;;;;;0.97;0.57;;;21.60;99.90;;;21.80;68.18;101825.41;6056347;23;97106;-74
2023/09/14 03:05:29;;;;;;;0.43;0.40;;;21.70;99.90;;;21.85;67.93;101823.28;6083850;22;97979;-74
2023/09/14 03:07:55;;;;;;;1.03;0.73;;;21.80;99.90;;;21.89;67.76;101819.44;6085156;23;98853;-75
2023/09/14 03:10:21;;;;;;;0.70;0.40;;;21.90;99.90;;;21.92;67.39;101824.59;6059062;23;98361;-75
2023/09/14 03:12:47;;;;;;;0.33;0.33;;;21.80;99.90;;;21.96;67.47;101826.13;6058884;23;97200;-74
2023/09/14 03:15:12;;;;;;;1.03;0.50;;;21.90;99.90;;;21.97;67.17;101820.66;6083412;22;97231;-75
2023/09/14 03:17:38;;;;;;;1.03;0.77;;;22.00;99.90;;;22.02;66.84;101828.44;6084340;23;97620;-74
2023/09/14 03:20:06;;;;;;;0.40;0.40;;;22.00;99.90;;;22.03;66.86;101826.59;6086368;23;105090;-74
2023/09/14 03:22:32;;;;;;;0.77;0.50;;;22.00;99.90;;;22.04;66.65;101818.44;6086888;22;96734;-75
2023/09/14 03:24:58;;;;;;;0.63;0.40;;;22.00;99.90;;;22.07;66.57;101823.63;6055442;23;96919;-75
2023/09/14 03:27:24;;;;;;;0.63;0.60;;;22.00;99.90;;;22.08;66.46;101825.38;6087776;22;99483;-77
2023/09/14 03:29:50;;;;;;;0.77;0.67;;;22.00;99.90;;;22.09;66.53;101820.84;6057680;23;99859;-75
2023/09/14 03:32:16;;;;;;;1.97;0.60;;;22.10;99.90;;;22.10;66.46;101820.75;6080144;22;97112;-74
2023/09/14 03:34:42;;;;;;;0.97;0.70;;;22.10;99.90;;;22.12;66.35;101821.50;6086031;23;97358;-75
2023/09/14 03:37:08;;;;;;;0.60;0.50;;;22.10;99.90;;;22.12;66.32;101816.13;6051552;23;97064;-75
2023/09/14 03:39:34;;;;;;;1.43;0.80;;;22.10;99.90;;;22.13;66.12;101817.88;6080229;22;97326;-75
2023/09/14 03:41:59;;;;;;;0.75;0.70;;;22.10;99.90;;;22.07;61.96;101818.25;6075719;22;97575;-75
2023/09/14 03:44:25;;;;;;;1.30;1.00;;;22.00;99.90;;;21.92;63.40;101813.88;6087938;23;97200;-75
2023/09/14 03:46:51;;;;;;;0.60;0.60;;;21.70;99.90;;;21.85;66.76;101817.94;6085919;23;97258;-75
2023/09/14 03:49:17;;;;;;;1.03;0.70;;;21.50;99.90;;;21.82;66.94;101815.41;6082189;22;114995;-75
2023/09/14 03:51:43;;;;;;;0.70;0.50;;;21.60;99.90;;;21.79;66.50;101823.69;6080499;22;97387;-75
2023/09/14 03:54:09;;;;;;;1.30;0.80;;;21.50;99.90;;;21.72;66.97;101817.00;6085202;22;97589;-74
2023/09/14 03:56:35;;;;;;;1.27;0.60;;;21.40;99.90;;;21.67;67.37;101818.13;6082646;22;96911;-75
2023/09/14 03:59:02;;;;;;;0.40;0.40;;;21.40;99.90;;;21.66;67.94;101813.72;6070486;22;97493;-75
2023/09/14 04:01:28;;;;;;;3.97;1.50;;;21.40;99.90;;;21.62;63.96;101814.88;6084681;22;106489;-75
2023/09/14 04:03:54;;;;;;;0.93;0.60;;;21.30;99.90;;;21.51;66.13;101820.06;6087859;22;97415;-75
2023/09/14 04:06:20;;;;;;;1.37;0.87;;;21.00;99.90;;;21.43;65.70;101808.97;6053892;23;101491;-74
2023/09/14 04:08:46;;;;;;;0.60;0.50;;;20.90;99.90;;;21.35;67.63;101808.56;6058655;23;99172;-75
2023/09/14 04:11:11;;;;;;;1.30;1.20;;;20.70;99.90;;;21.26;65.53;101814.50;6080646;22;97867;-74
2023/09/14 04:13:38;;;;;;;1.07;0.70;;;20.70;99.90;;;21.22;69.18;101802.22;6080570;23;98854;-75
2023/09/14 04:16:05;;;;;;;0.93;0.70;;;20.60;99.90;;;21.15;68.56;101816.97;6055877;23;99297;-74
2023/09/14 04:18:38;;;;;;;3.07;1.53;;;20.50;99.90;;;21.06;64.17;101819.25;6061555;22;97476;-74
2023/09/14 04:21:05;;;;;;;2.97;0.67;;;20.50;99.90;;;20.91;69.31;101809.47;6086362;22;97621;-74
2023/09/14 04:23:31;;;;;;;2.20;1.27;;;20.10;99.90;;;20.85;68.42;101804.47;6079714;22;97538;-74
2023/09/14 04:25:59;;;;;;;1.63;1.10;;;20.10;99.90;;;20.81;69.35;101813.66;6081470;22;97415;-74
2023/09/14 04:28:25;;;;;;;5.07;1.73;;;20.00;99.90;;;20.67;66.03;101816.28;6059310;23;101437;-74
2023/09/14 04:31:01;;;;;;;3.07;1.63;;;19.80;99.90;;;20.56;65.74;101813.41;6080374;22;97059;-74
2023/09/14 04:33:28;;;;;;;2.13;0.97;;;19.70;99.90;;;20.42;69.87;101817.75;6054560;23;97601;-74
2023/09/14 04:36:07;;;;;;;1.77;1.20;;;19.50;99.90;;;20.32;69.61;101821.88;6054938;23;103360;-74
2023/09/14 04:38:33;;;;;;;5.73;2.33;;;19.30;99.90;;;20.25;68.54;101825.84;6077281;23;102797;-74
2023/09/14 04:41:04;;;;;;;4.10;1.27;;;19.30;99.90;;;20.28;72.96;101820.34;6051269;22;97211;-75
2023/09/14 04:43:32;;;;;;;6.03;1.27;;;19.30;99.90;;;20.33;72.90;101818.25;6082479;22;96732;-74
2023/09/14 04:46:00;;;;;;;5.37;2.30;;;19.50;99.90;;;20.25;69.91;101820.50;6054562;23;99552;-74
2023/09/14 04:48:27;;;;;;;3.30;2.17;;;19.40;99.90;;;20.16;68.40;101827.28;6053389;23;101033;-73
2023/09/14 04:50:56;;;;;;;2.10;1.00;;;19.30;99.90;;;20.17;71.48;101833.50;6084578;22;97162;-74
2023/09/14 04:53:24;;;;;;;0.70;0.70;;;19.30;99.90;;;20.30;74.04;101833.66;6057992;23;97082;-74
2023/09/14 04:55:50;;;;;;;0.90;0.60;;;19.60;99.90;;;20.36;73.60;101834.16;6058836;23;104739;-73
2023/09/14 04:58:16;;;;;;;1.53;1.00;;;19.70;99.90;;;20.45;73.01;101828.28;6085792;23;97254;-74
2023/09/14 05:00:42;;;;;;;5.17;1.90;;;19.90;99.90;;;20.45;70.40;101830.13;6052978;23;97562;-74
2023/09/14 05:03:07;;;;;;;2.53;0.90;;;19.80;99.90;;;20.39;70.99;101828.59;6083150;22;108927;-74
2023/09/14 05:05:34;;;;;;;1.40;0.80;;;19.70;99.90;;;20.42;72.60;101833.84;6080883;23;114992;-74
2023/09/14 05:08:00;;;;;;;2.20;1.30;;;19.70;99.90;;;20.41;69.90;101826.75;6083832;23;98211;-74
2023/09/14 05:10:27;;;;;;;2.67;1.47;;;19.60;99.90;;;20.40;69.91;101835.72;6062358;23;97765;-76
2023/09/14 05:12:52;;;;;;;4.27;1.13;;;19.60;99.90;;;20.43;72.46;101830.22;6055001;23;104476;-74
2023/09/14 05:15:18;;;;;;;2.00;1.00;;;19.60;99.90;;;20.48;72.71;101838.84;6079868;22;97622;-74
2023/09/14 05:17:44;;;;;;;1.37;0.90;;;19.80;99.90;;;20.52;71.99;101844.00;6082210;22;120219;-74
2023/09/14 05:20:11;;;;;;;0.67;0.47;;;19.80;99.90;;;20.55;72.62;101839.34;6080786;22;96798;-74
2023/09/14 05:22:38;;;;;;;1.43;0.60;;;19.90;99.90;;;20.59;72.32;101837.34;6032696;23;96834;-73
2023/09/14 05:25:05;;;;;;;2.13;0.97;;;20.00;99.90;;;20.65;72.26;101839.66;6058054;23;97488;-74
2023/09/14 05:27:38;;;;;;;0.83;0.67;;;20.10;99.90;;;20.70;71.68;101843.81;6083574;23;97247;-74
2023/09/14 05:30:08;;;;;;;1.43;0.80;;;20.20;99.90;;;20.71;71.59;101842.00;6056050;23;97394;-73
2023/09/14 05:32:35;;;;;;;0.77;0.70;;;20.10;99.90;;;20.71;70.86;101833.94;6055147;23;97646;-74
2023/09/14 05:35:02;;;;;;;3.00;0.90;;;20.10;99.90;;;20.70;69.87;101837.59;6047385;23;99701;-74
2023/09/14 05:37:27;;;;;;;2.33;1.27;;;20.10;99.90;;;20.68;70.74;101839.47;6074026;23;97101;-74
2023/09/14 05:39:54;;;;;;;2.50;1.70;;;20.00;99.90;;;20.64;68.55;101843.28;6074011;22;97276;-74
2023/09/14 05:42:21;;;;;;;1.10;0.63;;;20.00;99.90;;;20.69;72.04;101846.59;6071622;22;98107;-74
2023/09/14 05:44:48;;;;;;;1.30;0.70;;;20.00;99.90;;;20.73;71.73;101858.84;6075165;22;98602;-74
2023/09/14 05:47:14;;;;;;;1.13;0.50;;;20.10;99.90;;;20.76;71.01;101858.66;6073440;23;97287;-74
2023/09/14 05:49:41;;;;;;;1.37;0.80;;;20.20;99.90;;;20.80;71.17;101858.38;6072497;22;97496;-73
2023/09/14 05:52:08;;;;;;;3.27;1.30;;;20.30;99.90;;;20.82;69.96;101857.41;6070234;22;97294;-74
2023/09/14 05:54:36;;;;;;;0.87;0.60;;;20.30;99.90;;;20.86;70.79;101858.97;6071725;23;97363;-74
2023/09/14 05:57:03;;;;;;;0.60;0.60;;;20.40;99.90;;;20.90;70.95;101856.00;6076022;23;96863;-74
2023/09/14 05:59:29;;;;;;;1.80;0.67;;;20.40;99.90;;;20.98;71.00;101855.56;6047878;23;97182;-74
2023/09/14 06:01:55;;;;;;;0.50;0.40;;;20.60;99.90;;;21.08;70.45;101856.72;6074232;22;97393;-74
2023/09/14 06:04:21;;;;;;;0.50;0.43;;;20.80;99.90;;;21.15;69.96;101865.25;6047976;23;101454;-73
2023/09/14 06:06:47;;;;;;;1.00;0.50;;;20.90;99.90;;;21.24;69.71;101859.31;6073663;22;96700;-74
2023/09/14 06:09:13;;;;;;;0.83;0.60;;;21.00;99.90;;;21.32;69.15;101868.66;6043437;23;101696;-74
2023/09/14 06:11:40;;;;;;;1.43;0.90;;;21.10;99.90;;;21.37;68.91;101863.88;6041299;23;96987;-74
2023/09/14 06:14:06;;;;;;;1.07;0.60;;;21.20;99.90;;;21.46;68.61;101870.50;6070932;22;97299;-74
2023/09/14 06:16:32;;;;;;;0.90;0.63;;;21.30;99.90;;;21.50;68.43;101872.03;6069770;23;97942;-73
2023/09/14 06:18:58;;;;;;;1.13;0.70;;;21.40;99.90;;;21.54;67.94;101861.94;6072971;23;96884;-73
2023/09/14 06:21:24;;;;;;;1.57;0.63;;;21.40;99.90;;;21.60;67.89;101881.25;6049886;23;97382;-74
2023/09/14 06:23:50;;;;;;;1.60;0.70;;;21.50;99.90;;;21.65;67.70;101880.94;6078221;22;98109;-74
2023/09/14 06:26:16;;;;;;;4.00;2.03;;;21.60;99.90;;;21.64;61.93;101880.06;6085182;22;105220;-73
2023/09/14 06:28:42;;;;;;;0.73;0.70;;;21.50;99.90;;;21.67;67.37;101885.25;6084305;22;97122;-74
2023/09/14 06:31:08;;;;;;;0.73;0.70;;;21.50;99.90;;;21.64;66.94;101893.50;6081027;22;96899;-74
2023/09/14 06:33:34;;;;;;;1.67;0.80;;;21.50;99.90;;;21.65;66.65;101891.69;6081587;22;97176;-74
2023/09/14 06:36:00;;;;;;;1.50;1.10;;;21.50;99.90;;;21.57;65.88;101888.63;6059908;23;99003;-74
2023/09/14 06:38:25;;;;;;;3.10;1.60;;;21.30;99.90;;;21.48;65.47;101895.41;6059513;23;97435;-76
2023/09/14 06:40:52;;;;;;;1.83;0.80;;;21.10;99.90;;;21.32;66.11;101891.97;6060988;22;97024;-74
2023/09/14 06:43:18;;;;;;;3.13;0.60;;;20.90;99.90;;;21.34;68.26;101890.03;6085141;23;97649;-73
2023/09/14 06:45:44;;;;;;;5.33;2.67;;;20.90;99.90;;;21.24;60.56;101894.19;6055953;23;97110;-74
2023/09/14 06:48:10;;;;;;;0.87;0.50;;;20.90;99.90;;;21.22;68.58;101896.13;6083033;23;97363;-74
2023/09/14 06:50:36;;;;;;;1.43;0.83;;;20.80;99.90;;;21.29;67.17;101892.16;6057947;22;98463;-74
2023/09/14 06:53:02;;;;;;;1.90;0.87;;;21.00;99.90;;;21.30;66.75;101897.44;6083992;22;107650;-73
2023/09/14 06:55:27;;;;;;;4.40;2.70;;;21.00;99.90;;;21.16;61.59;101901.88;6087754;23;97106;-74
2023/09/14 06:57:54;;;;;;;6.63;3.00;;;20.80;99.90;;;21.03;60.16;101904.41;6087500;23;97346;-73
2023/09/14 07:00:21;;;;;;;8.83;2.97;;;20.60;99.90;;;20.91;60.63;101899.78;6057907;23;97403;-73
2023/09/14 07:02:48;;;;;;;2.20;1.53;;;20.40;99.90;;;20.74;66.24;101898.97;6049565;23;99631;-74
2023/09/14 07:05:14;;;;;;;1.00;0.60;;;20.20;99.90;;;20.92;70.24;101898.81;6058282;23;98103;-73
2023/09/14 07:07:41;;;;;;;9.90;3.00;;;20.50;99.90;;;20.72;60.23;101900.00;6084580;23;97045;-74
2023/09/14 07:10:08;;;;;;;4.70;3.03;;;20.40;99.90;;;20.42;59.21;101903.53;6086000;23;98573;-74
2023/09/14 07:12:36;;;;;;;6.10;3.33;;;20.00;99.90;;;20.22;59.65;101901.06;6085213;22;97610;-55
2023/09/14 07:15:03;;;;;;;2.43;1.70;;;19.70;99.90;;;20.08;65.93;101896.47;6107952;22;98506;-74
2023/09/14 07:17:29;;;;;;;5.37;2.93;;;19.50;99.90;;;20.03;61.77;101900.38;6113920;22;97344;-74
2023/09/14 07:19:55;;;;;;;5.83;2.63;;;19.50;99.90;;;19.84;62.67;101912.09;6089941;22;97131;-74
2023/09/14 07:22:21;;;;;;;5.50;3.17;;;19.30;99.90;;;19.68;61.63;101911.22;6114737;22;97974;-74
2023/09/14 07:24:47;;;;;;;1.33;1.13;;;19.10;99.90;;;19.67;71.96;101913.94;6116264;22;97287;-74
2023/09/14 07:27:14;;;;;;;4.97;2.87;;;19.10;99.90;;;19.64;62.92;101908.75;6113974;22;96898;-75
2023/09/14 07:29:40;;;;;;;3.97;2.37;;;19.20;99.90;;;19.52;63.45;101910.25;6111742;22;97315;-74
2023/09/14 07:32:06;;;;;;;3.90;2.43;;;19.00;99.90;;;19.42;63.75;101912.56;6058249;22;100441;-74
2023/09/14 07:34:32;;;;;;;4.37;2.50;;;18.90;99.90;;;19.38;63.18;101919.00;6085579;22;97753;-74
2023/09/14 07:36:58;;;;;;;4.63;2.70;;;18.90;99.90;;;19.29;63.82;101920.38;6093475;22;97335;-74
2023/09/14 07:39:23;;;;;;;4.77;3.00;;;18.80;99.90;;;19.30;63.58;101921.22;6090295;22;97219;-75
2023/09/14 07:41:55;;;;;;;3.20;2.33;;;18.90;99.90;;;19.31;71.15;101915.78;6114856;22;104702;-74
2023/09/14 07:44:21;;;;;;;2.90;1.60;;;18.90;99.90;;;19.38;72.51;101913.66;6087217;22;97945;-74
2023/09/14 07:46:47;;;;;;;2.40;1.30;;;18.90;99.90;;;19.81;75.24;101920.28;6084760;22;97747;-74
2023/09/14 07:49:13;;;;;;;1.43;1.07;;;19.50;99.90;;;19.95;73.32;101915.97;6063194;22;97503;-75
2023/09/14 07:51:38;;;;;;;2.53;1.00;;;19.70;99.90;;;20.13;73.10;101917.66;6086203;22;97062;-74
2023/09/14 07:54:05;;;;;;;3.00;2.17;;;19.80;99.90;;;20.04;61.88;101921.72;6085678;22;99040;-75
2023/09/14 07:56:31;;;;;;;3.83;2.10;;;19.80;99.90;;;19.89;61.50;101917.19;6113083;22;96946;-77
2023/09/14 07:58:56;;;;;;;4.40;1.93;;;19.60;99.90;;;19.78;62.25;101923.13;6066013;22;97190;-74
2023/09/14 08:01:24;;;;;;;3.40;2.17;;;19.40;99.90;;;19.87;65.17;101928.00;6089086;22;102110;-74
2023/09/14 08:03:50;;;;;;;2.87;1.23;;;19.40;99.90;;;20.02;72.90;101930.78;6089575;22;97395;-74
2023/09/14 08:06:18;;;;;;;3.60;1.00;;;19.60;99.90;;;20.23;73.13;101932.25;6112062;22;99096;-74
2023/09/14 08:08:45;;;;;;;4.47;2.03;;;19.80;99.90;;;20.15;61.24;101931.84;6064562;22;97159;-74
2023/09/14 08:11:11;;;;;;;3.17;1.77;;;19.90;99.90;;;20.14;65.05;101935.47;6090244;22;99674;-74
2023/09/14 08:13:38;;;;;;;1.57;1.27;;;19.80;99.90;;;20.23;71.33;101932.25;6113792;22;98638;-74
2023/09/14 08:16:05;;;;;;;3.27;1.17;;;19.80;99.90;;;20.44;71.65;101923.06;6088919;22;97282;-74
2023/09/14 08:18:31;;;;;;;3.57;2.43;;;20.20;99.90;;;20.20;60.19;101927.06;6115559;22;98274;-77
2023/09/14 08:20:57;;;;;;;1.70;1.07;;;19.90;99.90;;;20.23;69.88;101929.56;6119624;22;100513;-74
2023/09/14 08:23:22;;;;;;;4.03;2.60;;;19.80;99.90;;;20.45;70.54;101930.13;6088299;22;100901;-74
2023/09/14 08:25:48;;;;;;;5.50;3.13;;;20.10;99.90;;;20.37;61.16;101924.31;6086563;22;99361;-74
2023/09/14 08:28:17;;;;;;;6.47;2.47;;;20.10;99.90;;;20.17;62.12;101929.94;6085173;22;101836;-75
2023/09/14 08:30:44;;;;;;;3.27;2.43;;;19.90;99.90;;;20.03;62.03;101933.38;6088702;22;97488;-74
2023/09/14 08:33:11;;;;;;;4.80;2.70;;;19.60;99.90;;;19.96;64.51;101936.47;6115005;22;97382;-74
2023/09/14 08:35:38;;;;;;;3.93;2.00;;;19.50;99.90;;;20.09;70.40;101935.69;6063881;22;97509;-74
2023/09/14 08:38:06;;;;;;;1.93;1.20;;;19.60;99.90;;;20.27;72.10;101947.22;6090130;22;97363;-74
2023/09/14 08:40:33;;;;;;;5.50;2.13;;;19.80;99.90;;;20.46;70.93;101947.94;6111874;22;97044;-75
2023/09/14 08:43:00;;;;;;;2.23;1.13;;;20.20;99.90;;;20.60;70.57;101949.84;6088645;22;97336;-74
2023/09/14 08:45:32;;;;;;;1.57;1.13;;;20.30;99.90;;;20.78;70.51;101948.78;6088659;22;96693;-74
2023/09/14 08:48:01;;;;;;;1.50;0.90;;;20.60;99.90;;;20.96;69.47;101946.81;6110895;22;97997;-75
2023/09/14 08:50:30;;;;;;;1.73;1.00;;;20.80;99.90;;;21.12;69.02;101943.22;6088074;22;101571;-74
2023/09/14 08:52:56;;;;;;;1.80;1.10;;;21.10;99.90;;;21.21;68.46;101946.25;6115752;22;100731;-74
2023/09/14 08:55:26;;;;;;;4.67;2.70;;;21.20;99.90;;;21.30;62.20;101936.81;6087656;22;97169;-74
2023/09/14 08:57:53;;;;;;;3.40;1.80;;;21.30;99.90;;;21.28;66.99;101936.06;6089622;22;96918;-74
2023/09/14 09:00:20;;;;;;;7.40;3.30;;;21.20;99.90;;;21.33;64.86;101933.94;6089530;22;97479;-74
2023/09/14 09:02:51;;;;;;;1.97;1.00;;;21.20;99.90;;;21.30;67.05;101940.38;6087918;22;96999;-74
2023/09/14 09:05:20;;;;;;;1.73;1.30;;;21.10;99.90;;;21.41;66.96;101931.66;6115679;22;98314;-74
2023/09/14 09:07:48;;;;;;;8.77;3.90;;;21.30;99.90;;;21.39;59.17;101928.19;6061667;22;97697;-74
2023/09/14 09:10:31;;;;;;;1.50;0.87;;;21.30;99.90;;;21.50;66.77;101925.72;6062509;22;100558;-74
2023/09/14 09:13:04;;;;;;;1.43;0.97;;;21.40;99.90;;;21.52;66.90;101923.78;6062502;22;103574;-74
2023/09/14 09:15:33;;;;;;;4.93;3.13;;;21.50;99.90;;;21.59;63.46;101930.53;6112717;22;97101;-74
2023/09/14 09:18:08;;;;;;;7.00;3.37;;;21.60;99.90;;;21.53;60.55;101930.88;6112239;22;97630;-75
2023/09/14 09:20:36;;;;;;;7.57;3.20;;;21.40;99.90;;;21.42;61.75;101928.03;6112110;22;101843;-75
2023/09/14 09:23:03;;;;;;;7.10;4.13;;;21.20;99.90;;;21.25;60.36;101936.22;6088521;22;96952;-74
2023/09/14 09:25:42;;;;;;;7.50;4.47;;;21.00;99.90;;;21.28;60.38;101928.00;6089816;22;97177;-74
2023/09/14 09:28:08;;;;;;;1.73;1.07;;;21.00;99.90;;;21.32;66.94;101929.53;6111976;22;97014;-74
2023/09/14 09:30:36;;;;;;;11.70;5.30;;;21.00;99.90;;;21.10;60.14;101937.97;6088818;22;118018;-74
2023/09/14 09:33:04;;;;;;;9.50;4.70;;;20.80;99.90;;;20.99;59.67;101924.34;6113920;22;97574;-74
2023/09/14 09:35:30;;;;;;;4.80;2.73;;;20.70;99.90;;;20.89;65.54;101924.00;6089835;22;97544;-74
2023/09/14 09:38:10;;;;;;;7.07;4.53;;;20.50;99.90;;;20.88;60.86;101926.78;6092056;22;97030;-74
2023/09/14 09:40:42;;;;;;;7.70;4.87;;;20.50;99.90;;;20.83;62.18;101935.13;6083124;22;102377;-74
2023/09/14 09:43:08;;;;;;;11.33;6.00;;;20.50;99.90;;;20.70;61.44;101929.59;6091035;22;99373;-74
2023/09/14 09:45:39;;;;;;;11.73;6.10;;;20.40;99.90;;;20.56;60.95;101929.53;6088661;22;97367;-74
2023/09/14 09:48:07;;;;;;;10.47;6.20;;;20.30;99.90;;;20.56;61.94;101924.16;6061694;22;97328;-74
2023/09/14 09:50:33;;;;;;;6.87;3.97;;;20.20;99.90;;;20.63;66.64;101916.63;6064404;22;99239;-74
2023/09/14 09:52:59;;;;;;;2.73;1.63;;;20.30;99.90;;;20.85;69.41;101919.78;6118202;22;97457;-74
2023/09/14 09:55:31;;;;;;;11.43;5.40;;;20.60;99.90;;;20.88;64.09;101916.94;6062744;22;96871;-74
2023/09/14 09:57:59;;;;;;;9.40;6.23;;;20.70;99.90;;;20.90;66.05;101911.47;6063720;22;97591;-75
2023/09/14 10:00:35;;;;;;;4.87;3.33;;;20.70;99.90;;;20.89;67.75;101924.00;6088979;22;101515;-74
2023/09/14 10:03:01;;;;;;;8.80;5.70;;;20.60;99.90;;;20.83;63.86;101910.97;6082995;22;105498;-74
2023/09/14 10:05:39;;;;;;;10.27;5.63;;;20.60;99.90;;;20.78;60.41;101915.72;6112530;22;97146;-74
2023/09/14 10:08:13;;;;;;;5.97;3.67;;;20.50;99.90;;;20.93;63.63;101906.78;6085116;22;97098;-74
2023/09/14 10:10:39;;;;;;;7.53;4.33;;;20.70;99.90;;;21.00;62.06;101904.63;6088946;22;97643;-74
2023/09/14 10:13:05;;;;;;;4.23;2.97;;;20.80;99.90;;;21.12;64.37;101908.34;6088088;22;97114;-74
2023/09/14 10:15:32;;;;;;;4.97;3.40;;;20.90;99.90;;;21.25;67.41;101914.75;6064843;22;98344;-74